Time;durP1;ratioP1;P1;durP2;ratioP2;P2;SDS_P1;SDS_P2;PMS_P1;PMS_P2;Temp;Humidity;BMP_temperature;BMP_pressure;BME280_temperature;BME280_humidity;BME280_pressure;Samples;Min_cycle;Max_cycle;Signal;HPM_P1;HPM_P2
2023/03/19 00:02:18;;;;;;;0.45;0.45;;;3.10;99.90;;;;;;5090572;28;20573;-79
2023/03/19 00:04:45;;;;;;;0.50;0.50;;;3.10;99.90;;;;;;5090992;28;20195;-78
2023/03/19 00:07:11;;;;;;;0.65;0.65;;;3.10;99.90;;;;;;5090838;28;20275;-78
2023/03/19 00:09:37;;;;;;;0.63;0.63;;;3.00;99.90;;;;;;5090615;28;20200;-79
2023/03/19 00:12:03;;;;;;;0.73;0.73;;;3.10;99.90;;;;;;5074552;28;20195;-79
2023/03/19 00:14:29;;;;;;;0.60;0.60;;;3.10;99.90;;;;;;5069019;28;20233;-79
2023/03/19 00:16:55;;;;;;;0.50;0.50;;;3.10;99.90;;;;;;5056407;28;20287;-79
2023/03/19 00:19:21;;;;;;;0.60;0.60;;;3.00;99.90;;;;;;5074123;28;20227;-79
2023/03/19 00:21:47;;;;;;;0.60;0.60;;;3.00;99.90;;;;;;5074392;28;20185;-79
2023/03/19 00:24:13;;;;;;;0.70;0.70;;;3.00;99.90;;;;;;5063096;28;20663;-78
2023/03/19 00:26:39;;;;;;;0.60;0.60;;;2.90;99.90;;;;;;5056039;28;20216;-79
2023/03/19 00:29:05;;;;;;;0.60;0.60;;;2.90;99.90;;;;;;5056554;28;20707;-78
2023/03/19 00:31:31;;;;;;;0.50;0.50;;;2.90;99.90;;;;;;5056033;28;20196;-78
2023/03/19 00:33:58;;;;;;;0.50;0.50;;;2.90;99.90;;;;;;5074095;28;20193;-79
2023/03/19 00:36:27;;;;;;;0.50;0.50;;;2.80;99.90;;;;;;5055843;28;20226;-79
2023/03/19 00:38:53;;;;;;;0.50;0.50;;;2.80;99.90;;;;;;5073939;28;20195;-79
2023/03/19 00:41:19;;;;;;;0.60;0.60;;;2.80;99.90;;;;;;5073801;28;20197;-79
2023/03/19 00:43:45;;;;;;;0.60;0.60;;;2.80;99.90;;;;;;5073924;28;20215;-79
2023/03/19 00:46:11;;;;;;;1.15;1.05;;;2.80;99.90;;;;;;5055958;28;20669;-79
2023/03/19 00:48:38;;;;;;;0.60;0.60;;;2.80;99.90;;;;;;5055997;28;20197;-79
2023/03/19 00:51:06;;;;;;;0.68;0.68;;;2.80;99.90;;;;;;5073803;28;20193;-79
2023/03/19 00:53:39;;;;;;;0.50;0.50;;;2.80;99.90;;;;;;5073649;28;20221;-79
2023/03/19 00:56:06;;;;;;;0.60;0.60;;;2.70;99.90;;;;;;5073567;28;20564;-79
2023/03/19 00:58:32;;;;;;;0.52;0.52;;;2.70;99.90;;;;;;5082406;28;20246;-79
2023/03/19 01:00:58;;;;;;;0.70;0.70;;;2.70;99.90;;;;;;5093584;28;20185;-79
2023/03/19 01:03:24;;;;;;;0.60;0.60;;;2.60;99.90;;;;;;5075260;28;20361;-79
2023/03/19 01:05:50;;;;;;;0.60;0.60;;;2.60;99.90;;;;;;5093668;28;20224;-78
2023/03/19 01:08:17;;;;;;;0.50;0.50;;;2.60;99.90;;;;;;5093774;28;20742;-79
2023/03/19 01:10:43;;;;;;;1.10;0.80;;;2.60;99.90;;;;;;5086234;28;20272;-79
2023/03/19 01:13:09;;;;;;;0.57;0.57;;;2.60;99.90;;;;;;5073545;28;20200;-79
2023/03/19 01:15:40;;;;;;;0.70;0.70;;;2.60;99.90;;;;;;5073278;28;20197;-79
2023/03/19 01:18:07;;;;;;;0.50;0.50;;;2.50;99.90;;;;;;5055299;28;20248;-78
2023/03/19 01:20:34;;;;;;;0.70;0.70;;;2.50;99.90;;;;;;5072752;28;20544;-79
2023/03/19 01:23:01;;;;;;;0.60;0.60;;;2.50;99.90;;;;;;5072617;28;20218;-78
2023/03/19 01:25:26;;;;;;;0.60;0.60;;;2.50;99.90;;;;;;5054846;28;20193;-79
2023/03/19 01:27:52;;;;;;;0.80;0.80;;;2.50;99.90;;;;;;5055169;28;20197;-79
2023/03/19 01:30:19;;;;;;;0.57;0.57;;;2.40;99.90;;;;;;5072935;28;20185;-79
2023/03/19 01:32:45;;;;;;;0.52;0.52;;;2.40;99.90;;;;;;5073119;28;20189;-78
2023/03/19 01:35:10;;;;;;;0.50;0.50;;;2.40;99.90;;;;;;5055090;28;20211;-78
2023/03/19 01:37:37;;;;;;;0.70;0.70;;;2.30;99.90;;;;;;5072719;28;20213;-79
2023/03/19 01:40:06;;;;;;;0.80;0.80;;;2.40;99.90;;;;;;5072704;28;20725;-79
2023/03/19 01:42:32;;;;;;;0.50;0.50;;;2.40;99.90;;;;;;5072938;28;20188;-79
2023/03/19 01:44:58;;;;;;;0.77;0.77;;;2.30;99.90;;;;;;5074678;28;20283;-78
2023/03/19 01:47:37;;;;;;;0.52;0.52;;;2.30;99.90;;;;;;5074626;28;20253;-78
2023/03/19 01:50:04;;;;;;;0.60;0.60;;;2.30;99.90;;;;;;5092773;28;20661;-79
2023/03/19 01:52:32;;;;;;;0.60;0.60;;;2.30;99.90;;;;;;5092674;28;20192;-79
2023/03/19 01:55:01;;;;;;;0.70;0.70;;;2.30;99.90;;;;;;5074351;28;20200;-79
2023/03/19 01:57:30;;;;;;;0.60;0.60;;;2.30;99.90;;;;;;5092649;28;20320;-78
2023/03/19 01:59:59;;;;;;;0.60;0.60;;;2.20;99.90;;;;;;5074361;28;20235;-79
2023/03/19 02:02:29;;;;;;;0.60;0.60;;;2.20;99.90;;;;;;5074338;28;20227;-76
2023/03/19 02:05:24;;;;;;;0.63;0.63;;;2.20;99.90;;;;;;5067049;22;20311;-73
2023/03/19 02:07:51;;;;;;;0.50;0.50;;;2.20;99.90;;;;;;5052964;28;20209;-75
2023/03/19 02:10:19;;;;;;;0.60;0.60;;;2.20;99.90;;;;;;5070712;28;20224;-74
2023/03/19 02:12:45;;;;;;;0.65;0.65;;;2.10;99.90;;;;;;5072118;28;20188;-75
2023/03/19 02:15:11;;;;;;;0.60;0.60;;;2.10;99.90;;;;;;5070338;28;20200;-75
2023/03/19 02:17:39;;;;;;;0.50;0.50;;;2.10;99.90;;;;;;5053755;28;20232;-74
2023/03/19 02:20:26;;;;;;;0.63;0.63;;;2.00;99.90;;;;;;5072070;28;20215;-76
2023/03/19 02:23:11;;;;;;;0.50;0.50;;;2.00;99.90;;;;;;5071920;28;20217;-76
2023/03/19 02:25:47;;;;;;;0.68;0.68;;;2.00;99.90;;;;;;5051543;28;20194;-76
2023/03/19 02:28:18;;;;;;;0.50;0.50;;;2.00;99.90;;;;;;5033911;28;20219;-74
2023/03/19 02:30:44;;;;;;;0.60;0.60;;;2.00;99.90;;;;;;5051602;28;20190;-75
2023/03/19 02:33:16;;;;;;;0.52;0.52;;;2.00;99.90;;;;;;5051704;28;20193;-75
2023/03/19 02:35:45;;;;;;;0.60;0.60;;;2.00;99.90;;;;;;5051213;28;20618;-75
2023/03/19 02:38:12;;;;;;;0.60;0.60;;;2.00;99.90;;;;;;5051600;28;20275;-75
2023/03/19 02:40:57;;;;;;;0.57;0.57;;;2.00;99.90;;;;;;5049281;28;20204;-75
2023/03/19 02:43:23;;;;;;;0.50;0.50;;;1.90;99.90;;;;;;5071215;28;20668;-75
2023/03/19 02:45:48;;;;;;;0.40;0.40;;;1.90;99.90;;;;;;5071250;28;20192;-75
2023/03/19 02:48:14;;;;;;;0.50;0.50;;;1.90;99.90;;;;;;5071440;28;20201;-76
2023/03/19 02:50:40;;;;;;;0.50;0.50;;;1.90;99.90;;;;;;5070987;28;20200;-75
2023/03/19 02:53:07;;;;;;;0.50;0.50;;;1.90;99.90;;;;;;5053227;28;20250;-75
2023/03/19 02:55:32;;;;;;;0.60;0.60;;;1.90;99.90;;;;;;5071179;28;20558;-75
2023/03/19 02:57:58;;;;;;;0.60;0.60;;;1.80;99.90;;;;;;5071114;28;20216;-75
2023/03/19 03:00:24;;;;;;;0.52;0.52;;;1.80;99.90;;;;;;5070694;28;20189;-75
2023/03/19 03:02:50;;;;;;;0.63;0.63;;;1.80;99.90;;;;;;5070331;28;20276;-75
2023/03/19 03:05:16;;;;;;;0.60;0.60;;;1.80;99.90;;;;;;5069320;28;20243;-75
2023/03/19 03:07:44;;;;;;;0.60;0.60;;;1.70;99.90;;;;;;5071388;28;20665;-75
2023/03/19 03:10:10;;;;;;;0.57;0.57;;;1.70;99.90;;;;;;5069925;28;20254;-74
2023/03/19 03:12:39;;;;;;;0.73;0.73;;;1.70;99.90;;;;;;5071235;28;20652;-75
2023/03/19 03:15:07;;;;;;;0.52;0.52;;;1.60;99.90;;;;;;5069680;28;20208;-75
2023/03/19 03:17:36;;;;;;;0.50;0.50;;;1.60;99.90;;;;;;5070787;28;20204;-75
2023/03/19 03:20:04;;;;;;;0.60;0.60;;;1.60;99.90;;;;;;5071110;28;20204;-75
2023/03/19 03:22:30;;;;;;;0.60;0.60;;;1.60;99.90;;;;;;5070565;28;20188;-75
2023/03/19 03:24:56;;;;;;;0.60;0.60;;;1.60;99.90;;;;;;5070540;28;20192;-75
2023/03/19 03:27:21;;;;;;;0.60;0.60;;;1.60;99.90;;;;;;5070757;28;20199;-75
2023/03/19 03:29:47;;;;;;;0.68;0.68;;;1.60;99.90;;;;;;5070786;28;20189;-75
2023/03/19 03:32:13;;;;;;;0.80;0.80;;;1.60;99.90;;;;;;5070648;28;20584;-75
2023/03/19 03:34:39;;;;;;;0.60;0.60;;;1.60;99.90;;;;;;5053003;28;20283;-76
2023/03/19 03:37:05;;;;;;;0.50;0.50;;;1.60;99.90;;;;;;5070356;28;20698;-75
2023/03/19 03:39:31;;;;;;;0.80;0.80;;;1.60;99.90;;;;;;5052477;28;20218;-76
2023/03/19 03:41:57;;;;;;;0.52;0.52;;;1.50;99.90;;;;;;5052375;28;20200;-76
2023/03/19 03:44:23;;;;;;;0.60;0.60;;;1.60;99.90;;;;;;5052729;28;20191;-76
2023/03/19 03:46:52;;;;;;;0.60;0.60;;;1.50;99.90;;;;;;5054400;28;20288;-76
2023/03/19 03:49:17;;;;;;;0.68;0.68;;;1.50;99.90;;;;;;5074669;28;20189;-75
2023/03/19 03:51:43;;;;;;;0.60;0.60;;;1.40;99.90;;;;;;5075040;28;20219;-76
2023/03/19 03:54:09;;;;;;;0.50;0.50;;;1.40;99.90;;;;;;5056999;28;20579;-75
2023/03/19 03:56:35;;;;;;;0.60;0.60;;;1.40;99.90;;;;;;5074466;28;20205;-75
2023/03/19 03:59:01;;;;;;;0.70;0.70;;;1.40;99.90;;;;;;5074527;28;20590;-75
2023/03/19 04:01:27;;;;;;;0.63;0.63;;;1.30;99.90;;;;;;5055513;28;20292;-76
2023/03/19 04:03:53;;;;;;;0.60;0.60;;;1.30;99.90;;;;;;5068546;28;20251;-76
2023/03/19 04:06:21;;;;;;;0.65;0.65;;;1.30;99.90;;;;;;5094488;28;20260;-76
2023/03/19 04:08:47;;;;;;;0.70;0.70;;;1.30;99.90;;;;;;5076483;28;20753;-76
2023/03/19 04:11:13;;;;;;;0.50;0.50;;;1.30;99.90;;;;;;5094723;28;20189;-75
2023/03/19 04:13:40;;;;;;;0.52;0.52;;;1.30;99.90;;;;;;5094501;28;20268;-76
2023/03/19 04:16:08;;;;;;;0.60;0.60;;;1.30;99.90;;;;;;5076376;28;20196;-75
2023/03/19 04:18:35;;;;;;;0.50;0.50;;;1.30;99.90;;;;;;5094348;28;20222;-76
2023/03/19 04:21:02;;;;;;;0.47;0.47;;;1.30;99.90;;;;;;5094448;28;20724;-76
2023/03/19 04:23:28;;;;;;;0.60;0.60;;;1.30;99.90;;;;;;5089899;28;20193;-76
2023/03/19 04:25:59;;;;;;;0.65;0.65;;;1.30;99.90;;;;;;5056054;28;20239;-76
2023/03/19 04:28:25;;;;;;;0.60;0.60;;;1.30;99.90;;;;;;5073836;28;20184;-76
2023/03/19 04:30:50;;;;;;;0.50;0.50;;;1.40;99.90;;;;;;5074074;28;20299;-76
2023/03/19 04:33:19;;;;;;;0.60;0.60;;;1.30;99.90;;;;;;5073787;28;20204;-76
2023/03/19 04:35:45;;;;;;;0.50;0.50;;;1.30;99.90;;;;;;5073911;28;20272;-76
2023/03/19 04:38:11;;;;;;;0.52;0.52;;;1.30;99.90;;;;;;5055955;28;20258;-75
2023/03/19 04:40:37;;;;;;;0.60;0.60;;;1.30;99.90;;;;;;5073517;28;20597;-75
2023/03/19 04:43:02;;;;;;;0.63;0.63;;;1.30;99.90;;;;;;5055810;28;20232;-75
2023/03/19 04:45:28;;;;;;;0.70;0.70;;;1.30;99.90;;;;;;5055516;28;20681;-75
2023/03/19 04:47:55;;;;;;;0.60;0.60;;;1.30;99.90;;;;;;5055852;28;20196;-75
2023/03/19 04:50:20;;;;;;;0.70;0.70;;;1.30;99.90;;;;;;5055701;28;20641;-75
2023/03/19 04:52:46;;;;;;;0.45;0.45;;;1.30;99.90;;;;;;5074293;28;20238;-76
2023/03/19 04:55:12;;;;;;;0.63;0.63;;;1.40;99.90;;;;;;5073339;28;20546;-75
2023/03/19 04:57:38;;;;;;;0.70;0.70;;;1.30;99.90;;;;;;5072605;28;20580;-75
2023/03/19 05:00:05;;;;;;;0.80;0.80;;;1.30;99.90;;;;;;5073618;28;20197;-75
2023/03/19 05:02:31;;;;;;;0.70;0.70;;;1.30;99.90;;;;;;5073136;28;20266;-76
2023/03/19 05:04:57;;;;;;;0.70;0.70;;;1.40;99.90;;;;;;5073247;28;20262;-76
2023/03/19 05:07:22;;;;;;;0.50;0.50;;;1.40;99.90;;;;;;5055073;28;20728;-75
2023/03/19 05:09:48;;;;;;;0.57;0.57;;;1.40;99.90;;;;;;5055477;28;20197;-75
2023/03/19 05:12:14;;;;;;;0.52;0.52;;;1.40;99.90;;;;;;5073072;28;20766;-75
2023/03/19 05:14:40;;;;;;;0.60;0.60;;;1.40;99.90;;;;;;5073076;28;20231;-75
2023/03/19 05:17:06;;;;;;;0.60;0.60;;;1.30;99.90;;;;;;5073038;28;20205;-75
2023/03/19 05:19:32;;;;;;;0.57;0.57;;;1.30;99.90;;;;;;5054911;28;20535;-75
2023/03/19 05:21:58;;;;;;;0.73;0.73;;;1.30;99.90;;;;;;5073269;28;20213;-75
2023/03/19 05:24:24;;;;;;;0.52;0.52;;;1.30;99.90;;;;;;5073175;28;20339;-75
2023/03/19 05:26:51;;;;;;;0.70;0.70;;;1.30;99.90;;;;;;5055084;28;20197;-75
2023/03/19 05:29:17;;;;;;;0.60;0.60;;;1.30;99.90;;;;;;5072945;28;20605;-75
2023/03/19 05:31:42;;;;;;;0.55;0.55;;;1.40;99.90;;;;;;5072810;28;20193;-75
2023/03/19 05:34:08;;;;;;;0.60;0.60;;;1.30;99.90;;;;;;5073023;28;20715;-76
2023/03/19 05:36:34;;;;;;;0.60;0.60;;;1.40;99.90;;;;;;5072767;28;20208;-76
2023/03/19 05:39:00;;;;;;;1.00;1.00;;;1.40;99.90;;;;;;5071432;28;20192;-76
2023/03/19 05:41:26;;;;;;;0.95;0.95;;;1.40;99.90;;;;;;5054692;28;20193;-76
2023/03/19 05:43:52;;;;;;;0.55;0.55;;;1.40;99.90;;;;;;5072813;28;20214;-76
2023/03/19 05:46:18;;;;;;;0.70;0.70;;;1.40;99.90;;;;;;5072672;28;20185;-75
2023/03/19 05:48:44;;;;;;;0.60;0.60;;;1.40;99.90;;;;;;5054476;28;20193;-75
2023/03/19 05:51:10;;;;;;;0.60;0.60;;;1.40;99.90;;;;;;5054507;28;20247;-75
2023/03/19 05:53:36;;;;;;;0.60;0.60;;;1.40;99.90;;;;;;5054212;28;20276;-75
2023/03/19 05:56:02;;;;;;;0.50;0.50;;;1.40;99.90;;;;;;5072363;28;20268;-75
2023/03/19 05:58:28;;;;;;;0.60;0.60;;;1.50;99.90;;;;;;5071997;28;20201;-75
2023/03/19 06:00:55;;;;;;;0.90;0.90;;;1.50;99.90;;;;;;5072322;28;20536;-75
2023/03/19 06:03:21;;;;;;;1.30;1.20;;;1.50;99.90;;;;;;5072057;28;20193;-75
2023/03/19 06:05:50;;;;;;;0.70;0.70;;;1.50;99.90;;;;;;5072023;28;20228;-75
2023/03/19 06:08:17;;;;;;;0.50;0.50;;;1.50;99.90;;;;;;5071581;28;20193;-75
2023/03/19 06:10:43;;;;;;;0.52;0.52;;;1.60;99.90;;;;;;5071557;28;20559;-75
2023/03/19 06:13:08;;;;;;;0.70;0.70;;;1.60;99.90;;;;;;5072172;28;20226;-75
2023/03/19 06:15:34;;;;;;;0.60;0.60;;;1.60;99.90;;;;;;5071936;28;20318;-75
2023/03/19 06:18:00;;;;;;;0.63;0.63;;;1.60;99.90;;;;;;5053899;28;20204;-76
2023/03/19 06:20:26;;;;;;;0.60;0.60;;;1.60;99.90;;;;;;5053820;28;20204;-74
2023/03/19 06:22:52;;;;;;;0.57;0.57;;;1.60;99.90;;;;;;5071859;28;20215;-75
2023/03/19 06:25:18;;;;;;;0.50;0.50;;;1.60;99.90;;;;;;5071311;28;20248;-75
2023/03/19 06:27:43;;;;;;;0.40;0.40;;;1.60;99.90;;;;;;5071896;28;20220;-75
2023/03/19 06:30:10;;;;;;;0.55;0.55;;;1.60;99.90;;;;;;5071888;28;20739;-75
2023/03/19 06:32:36;;;;;;;2.97;1.55;;;1.70;99.90;;;;;;5053594;28;20664;-74
2023/03/19 06:35:02;;;;;;;0.57;0.57;;;1.70;99.90;;;;;;5071714;28;20279;-74
2023/03/19 06:37:28;;;;;;;0.93;0.93;;;1.80;99.90;;;;;;5053347;28;20654;-74
2023/03/19 06:39:53;;;;;;;4.32;3.13;;;1.90;99.90;;;;;;5053496;28;20287;-75
2023/03/19 06:42:22;;;;;;;2.25;2.10;;;1.90;99.90;;;;;;5053325;28;20557;-74
2023/03/19 06:44:48;;;;;;;1.52;1.42;;;1.90;99.90;;;;;;5071553;28;20199;-75
2023/03/19 06:47:14;;;;;;;1.67;1.50;;;2.00;99.90;;;;;;5071349;28;20201;-75
2023/03/19 06:49:40;;;;;;;2.03;1.92;;;2.00;99.90;;;;;;5071192;28;20201;-75
2023/03/19 06:52:06;;;;;;;1.52;1.42;;;2.00;99.90;;;;;;5053511;28;20193;-75
2023/03/19 06:54:32;;;;;;;1.40;1.30;;;2.10;99.90;;;;;;5071063;28;20814;-75
2023/03/19 06:56:58;;;;;;;1.88;1.77;;;2.10;99.90;;;;;;5053286;28;20209;-75
2023/03/19 06:59:25;;;;;;;1.58;1.48;;;2.10;99.90;;;;;;5071665;28;20200;-75
2023/03/19 07:01:51;;;;;;;0.65;0.65;;;2.20;99.90;;;;;;5052870;28;20200;-76
2023/03/19 07:04:17;;;;;;;0.88;0.82;;;2.20;99.90;;;;;;5052893;28;20600;-76
2023/03/19 07:06:43;;;;;;;0.65;0.65;;;2.20;99.90;;;;;;5053233;28;20632;-76
2023/03/19 07:09:10;;;;;;;0.73;0.73;;;2.20;99.90;;;;;;5053212;28;20208;-76
2023/03/19 07:11:36;;;;;;;0.70;0.70;;;2.30;99.90;;;;;;5052881;28;20616;-76
2023/03/19 07:14:02;;;;;;;0.55;0.55;;;2.30;99.90;;;;;;5071149;28;20193;-75
2023/03/19 07:16:28;;;;;;;0.70;0.70;;;2.30;99.90;;;;;;5071050;28;20196;-75
2023/03/19 07:18:55;;;;;;;0.80;0.80;;;2.30;99.90;;;;;;5071031;28;20200;-75
2023/03/19 07:21:21;;;;;;;0.60;0.60;;;2.30;99.90;;;;;;5070310;28;20560;-75
2023/03/19 07:23:46;;;;;;;0.70;0.70;;;2.30;99.90;;;;;;5071026;28;20279;-75
2023/03/19 07:26:12;;;;;;;0.60;0.60;;;2.40;99.90;;;;;;5052933;28;20705;-75
2023/03/19 07:28:38;;;;;;;0.60;0.60;;;2.40;99.90;;;;;;5070744;28;20192;-76
2023/03/19 07:31:05;;;;;;;0.70;0.70;;;2.40;99.90;;;;;;5052880;28;20295;-75
2023/03/19 07:33:31;;;;;;;0.85;0.85;;;2.40;99.90;;;;;;5053061;28;20509;-75
2023/03/19 07:35:57;;;;;;;1.10;1.10;;;2.40;99.90;;;;;;5052873;28;20219;-75
2023/03/19 07:38:23;;;;;;;0.90;0.90;;;2.40;99.90;;;;;;5070640;28;20511;-76
2023/03/19 07:40:49;;;;;;;0.98;0.98;;;2.50;99.90;;;;;;5052752;28;20292;-76
2023/03/19 07:43:16;;;;;;;0.75;0.75;;;2.50;99.90;;;;;;5070900;28;20671;-75
2023/03/19 07:45:42;;;;;;;0.80;0.80;;;2.50;99.90;;;;;;5052253;28;20548;-76
2023/03/19 07:48:07;;;;;;;0.77;0.77;;;2.60;99.90;;;;;;5070704;28;20203;-76
2023/03/19 07:50:33;;;;;;;0.70;0.70;;;2.70;99.90;;;;;;5052546;28;20219;-76
2023/03/19 07:52:59;;;;;;;3.10;1.83;;;2.70;99.90;;;;;;5052396;28;20223;-76
2023/03/19 07:55:25;;;;;;;0.73;0.73;;;2.80;99.90;;;;;;5052844;28;20197;-76
2023/03/19 07:57:51;;;;;;;0.60;0.60;;;2.90;99.90;;;;;;5052583;28;20220;-76
2023/03/19 08:00:17;;;;;;;0.60;0.60;;;3.00;99.90;;;;;;5052399;28;20715;-75
2023/03/19 08:02:43;;;;;;;0.52;0.52;;;3.00;99.90;;;;;;5052219;28;20253;-75
2023/03/19 08:05:09;;;;;;;0.63;0.63;;;3.10;99.90;;;;;;5070316;28;20252;-76
2023/03/19 08:07:36;;;;;;;0.57;0.57;;;3.10;99.90;;;;;;5070264;28;20193;-76
2023/03/19 08:10:03;;;;;;;0.70;0.70;;;3.00;99.90;;;;;;5052910;28;20326;-76
2023/03/19 08:12:30;;;;;;;0.80;0.80;;;3.00;99.90;;;;;;5070467;28;20200;-76
2023/03/19 08:14:56;;;;;;;4.70;1.80;;;2.90;99.90;;;;;;5052576;28;20201;-76
2023/03/19 08:17:22;;;;;;;0.70;0.70;;;2.90;99.90;;;;;;5070031;28;20205;-76
2023/03/19 08:19:47;;;;;;;0.50;0.50;;;2.80;99.90;;;;;;5070398;28;20871;-76
2023/03/19 08:22:13;;;;;;;0.75;0.75;;;2.80;99.90;;;;;;5070445;28;20189;-76
2023/03/19 08:24:39;;;;;;;0.90;0.90;;;2.80;99.90;;;;;;5069972;28;20209;-76
2023/03/19 08:27:05;;;;;;;0.80;0.75;;;2.90;99.90;;;;;;5070587;28;20211;-76
2023/03/19 08:29:31;;;;;;;0.70;0.70;;;3.00;99.90;;;;;;5051863;28;20295;-75
2023/03/19 08:31:57;;;;;;;1.08;1.02;;;3.20;99.90;;;;;;5070764;28;20279;-75
2023/03/19 08:34:23;;;;;;;0.88;0.88;;;3.30;99.90;;;;;;5074051;28;20707;-76
2023/03/19 08:36:49;;;;;;;0.60;0.60;;;3.30;99.90;;;;;;5055914;28;20213;-76
2023/03/19 08:39:15;;;;;;;0.93;0.93;;;3.40;99.90;;;;;;5074044;28;20193;-76
2023/03/19 08:41:41;;;;;;;0.68;0.68;;;3.50;99.90;;;;;;5073608;28;20242;-76
2023/03/19 08:44:07;;;;;;;0.60;0.60;;;3.50;99.90;;;;;;5073908;28;20193;-76
2023/03/19 08:46:33;;;;;;;0.90;0.90;;;3.50;99.90;;;;;;5055540;28;20558;-76
2023/03/19 08:48:59;;;;;;;0.60;0.60;;;3.50;99.90;;;;;;5055807;28;20211;-76
2023/03/19 08:51:27;;;;;;;0.70;0.70;;;3.50;99.90;;;;;;5073621;28;20275;-76
2023/03/19 08:53:53;;;;;;;0.60;0.60;;;3.60;99.90;;;;;;5055976;28;20718;-76
2023/03/19 08:56:19;;;;;;;0.50;0.50;;;3.70;99.90;;;;;;5073441;28;20334;-75
2023/03/19 08:58:45;;;;;;;0.60;0.60;;;3.80;99.90;;;;;;5073673;28;20560;-76
2023/03/19 09:01:12;;;;;;;0.80;0.80;;;4.00;99.90;;;;;;5073582;28;20640;-76
2023/03/19 09:03:44;;;;;;;0.65;0.65;;;4.10;99.90;;;;;;5055003;28;20260;-76
2023/03/19 09:06:13;;;;;;;0.70;0.70;;;4.30;99.90;;;;;;5056681;28;20683;-76
2023/03/19 09:08:43;;;;;;;0.60;0.60;;;4.30;99.90;;;;;;5056204;28;20242;-76
2023/03/19 09:11:09;;;;;;;0.40;0.40;;;4.40;99.90;;;;;;5074742;28;20185;-75
2023/03/19 09:13:37;;;;;;;0.60;0.60;;;4.40;99.90;;;;;;5056274;28;20675;-76
2023/03/19 09:16:04;;;;;;;0.80;0.80;;;4.50;99.90;;;;;;5074605;28;20656;-75
2023/03/19 09:18:30;;;;;;;0.60;0.60;;;4.50;99.90;;;;;;5074676;28;20217;-76
2023/03/19 09:20:56;;;;;;;0.70;0.70;;;4.60;99.90;;;;;;5074545;28;20196;-75
2023/03/19 09:23:22;;;;;;;0.60;0.60;;;4.70;99.90;;;;;;5056439;28;20224;-75
2023/03/19 09:25:48;;;;;;;0.70;0.70;;;4.70;99.90;;;;;;5056347;28;20204;-75
2023/03/19 09:28:17;;;;;;;0.80;0.80;;;4.70;99.90;;;;;;5074447;28;20193;-75
2023/03/19 09:30:46;;;;;;;0.70;0.70;;;4.80;99.90;;;;;;5056361;28;20227;-75
2023/03/19 09:33:13;;;;;;;0.77;0.77;;;4.70;99.90;;;;;;5056465;28;20222;-75
2023/03/19 09:35:39;;;;;;;0.50;0.50;;;4.80;99.90;;;;;;5056193;28;20781;-75
2023/03/19 09:38:05;;;;;;;0.60;0.60;;;4.80;99.90;;;;;;5074036;28;20291;-76
2023/03/19 09:40:44;;;;;;;1.20;1.10;;;4.80;99.90;;;;;;5074043;28;20666;-76
2023/03/19 09:43:19;;;;;;;0.60;0.60;;;4.80;99.90;;;;;;5073876;28;20193;-76
2023/03/19 09:45:46;;;;;;;0.70;0.70;;;4.90;99.90;;;;;;5056101;28;20224;-75
2023/03/19 09:48:18;;;;;;;0.70;0.70;;;5.00;99.90;;;;;;5056132;28;20201;-76
2023/03/19 09:50:47;;;;;;;0.60;0.60;;;5.10;99.90;;;;;;5073903;28;20488;-77
2023/03/19 09:53:44;;;;;;;0.55;0.55;;;5.10;99.90;;;;;;5074032;28;20188;-76
2023/03/19 09:56:14;;;;;;;0.60;0.60;;;5.20;99.90;;;;;;5056303;28;20220;-75
2023/03/19 09:58:40;;;;;;;0.70;0.70;;;5.40;99.90;;;;;;5073671;28;20208;-75
2023/03/19 10:01:06;;;;;;;0.70;0.70;;;5.50;99.90;;;;;;5055759;28;20218;-74
2023/03/19 10:03:37;;;;;;;0.70;0.70;;;5.60;99.90;;;;;;5073560;28;20196;-75
2023/03/19 10:06:32;;;;;;;0.70;0.70;;;5.70;99.90;;;;;;5055623;28;20638;-75
2023/03/19 10:09:15;;;;;;;0.70;0.70;;;5.80;99.90;;;;;;5073758;28;20188;-74
2023/03/19 10:12:12;;;;;;;0.73;0.73;;;5.90;99.90;;;;;;5055353;28;20652;-75
2023/03/19 10:15:02;;;;;;;0.60;0.60;;;6.00;99.90;;;;;;5073249;28;20713;-75
2023/03/19 10:17:41;;;;;;;1.05;0.85;;;5.90;99.90;;;;;;5073285;28;20720;-75
2023/03/19 10:20:22;;;;;;;5.53;3.08;;;5.90;99.90;;;;;;5073320;28;20185;-77
2023/03/19 10:23:00;;;;;;;0.60;0.60;;;6.00;99.90;;;;;;5035493;28;20193;-77
2023/03/19 10:25:30;;;;;;;0.70;0.70;;;6.00;99.90;;;;;;5035293;28;20679;-76
2023/03/19 10:28:00;;;;;;;1.30;1.13;;;6.10;99.90;;;;;;5053393;28;20193;-75
2023/03/19 10:30:29;;;;;;;0.65;0.65;;;6.10;99.90;;;;;;5035228;28;20201;-75
2023/03/19 10:33:17;;;;;;;0.60;0.60;;;6.20;99.90;;;;;;5057527;28;20196;-75
2023/03/19 10:35:44;;;;;;;0.93;0.93;;;6.20;99.90;;;;;;5073010;28;20200;-75
2023/03/19 10:38:21;;;;;;;0.80;0.80;;;6.30;99.90;;;;;;5055024;28;20215;-75
2023/03/19 10:41:05;;;;;;;0.57;0.57;;;6.40;99.90;;;;;;5072910;28;20193;-76
2023/03/19 10:43:33;;;;;;;0.90;0.90;;;6.40;99.90;;;;;;5072784;28;20596;-76
2023/03/19 10:45:59;;;;;;;1.00;1.00;;;6.50;99.90;;;;;;5072895;28;20189;-74
2023/03/19 10:48:26;;;;;;;0.60;0.60;;;6.50;99.90;;;;;;5072688;28;20209;-75
2023/03/19 10:50:54;;;;;;;2.38;1.13;;;6.50;99.90;;;;;;5054916;28;20249;-76
2023/03/19 10:53:32;;;;;;;0.63;0.63;;;6.60;99.90;;;;;;5054722;28;20200;-76
2023/03/19 10:56:19;;;;;;;0.60;0.60;;;6.70;99.90;;;;;;5054054;28;20262;-75
2023/03/19 10:59:29;;;;;;;0.60;0.60;;;6.60;99.90;;;;;;5072609;28;20211;-75
2023/03/19 11:01:57;;;;;;;0.60;0.60;;;6.60;99.90;;;;;;5046614;28;20204;-76
2023/03/19 11:04:25;;;;;;;0.70;0.70;;;6.80;99.90;;;;;;5071995;28;20578;-76
2023/03/19 11:06:53;;;;;;;0.70;0.70;;;6.80;99.90;;;;;;5072355;28;20703;-76
2023/03/19 11:09:38;;;;;;;0.60;0.60;;;6.90;99.90;;;;;;5072390;28;20664;-76
2023/03/19 11:12:16;;;;;;;0.65;0.65;;;6.80;99.90;;;;;;5054441;28;20717;-76
2023/03/19 11:14:45;;;;;;;0.70;0.70;;;6.80;99.90;;;;;;5072374;28;20195;-75
2023/03/19 11:17:22;;;;;;;0.60;0.60;;;6.90;99.90;;;;;;5072175;28;20205;-76
2023/03/19 11:19:56;;;;;;;0.60;0.60;;;6.80;99.90;;;;;;5072419;28;20185;-76
2023/03/19 11:22:24;;;;;;;0.60;0.60;;;6.70;99.90;;;;;;5054151;28;20193;-74
2023/03/19 11:24:56;;;;;;;0.60;0.60;;;6.60;99.90;;;;;;5056614;28;20200;-77
2023/03/19 11:27:33;;;;;;;0.60;0.60;;;6.60;99.90;;;;;;5034255;28;20208;-74
2023/03/19 11:30:00;;;;;;;0.70;0.70;;;6.60;99.90;;;;;;5063319;28;20568;-76
2023/03/19 11:32:42;;;;;;;0.70;0.70;;;6.60;99.90;;;;;;5054129;28;20305;-77
2023/03/19 11:35:16;;;;;;;0.70;0.70;;;6.60;99.90;;;;;;5054318;28;20697;-76
2023/03/19 11:38:02;;;;;;;0.70;0.70;;;6.70;99.90;;;;;;5072065;28;20200;-76
2023/03/19 11:40:44;;;;;;;0.60;0.60;;;6.80;99.90;;;;;;5072142;28;20196;-76
2023/03/19 11:43:18;;;;;;;0.77;0.77;;;6.90;99.90;;;;;;5072252;28;20223;-76
2023/03/19 11:46:18;;;;;;;0.60;0.60;;;7.00;99.90;;;;;;5072082;28;20195;-76
2023/03/19 11:48:52;;;;;;;0.60;0.60;;;7.00;99.90;;;;;;5072042;28;20197;-76
2023/03/19 11:51:35;;;;;;;0.60;0.60;;;6.90;99.90;;;;;;5072065;28;20226;-73
2023/03/19 11:54:47;;;;;;;0.65;0.65;;;6.90;99.90;;;;;;5072004;28;20667;-72
2023/03/19 11:57:27;;;;;;;0.60;0.60;;;6.90;99.90;;;;;;5027280;28;20310;-72
2023/03/19 12:00:09;;;;;;;2.08;1.33;;;6.80;99.90;;;;;;5053994;28;20193;-74
2023/03/19 12:02:44;;;;;;;1.00;1.00;;;6.80;99.90;;;;;;5053753;28;20201;-72
2023/03/19 12:05:50;;;;;;;0.60;0.60;;;6.80;99.90;;;;;;5053610;28;20717;-72
2023/03/19 12:08:28;;;;;;;0.60;0.60;;;6.70;99.90;;;;;;5057116;28;20577;-72
2023/03/19 12:10:59;;;;;;;0.55;0.55;;;6.70;99.90;;;;;;5075875;28;20606;-72
2023/03/19 12:13:44;;;;;;;0.60;0.60;;;6.70;99.90;;;;;;5075302;28;20661;-73
2023/03/19 12:16:47;;;;;;;2.75;1.67;;;6.60;99.90;;;;;;5075714;28;20634;-73
2023/03/19 12:19:49;;;;;;;0.73;0.73;;;6.70;99.90;;;;;;5075710;28;20201;-72
2023/03/19 12:22:49;;;;;;;0.60;0.60;;;6.80;99.90;;;;;;5075633;28;20301;-71
2023/03/19 12:25:43;;;;;;;0.50;0.50;;;6.80;99.90;;;;;;5059355;28;20593;-72
2023/03/19 12:28:33;;;;;;;0.60;0.60;;;6.60;99.90;;;;;;5075542;28;20563;-73
2023/03/19 12:31:19;;;;;;;0.70;0.70;;;6.60;99.90;;;;;;5057531;28;20291;-73
2023/03/19 12:33:55;;;;;;;0.60;0.60;;;6.60;99.90;;;;;;5075478;28;20227;-73
2023/03/19 12:36:26;;;;;;;0.60;0.60;;;6.50;99.90;;;;;;5057120;28;20204;-73
2023/03/19 12:39:04;;;;;;;0.52;0.52;;;6.40;99.90;;;;;;5057348;28;20270;-71
2023/03/19 12:41:32;;;;;;;0.70;0.70;;;6.50;99.90;;;;;;5075128;28;20672;-72
2023/03/19 12:44:01;;;;;;;0.68;0.68;;;6.40;99.90;;;;;;5057264;28;20687;-71
2023/03/19 12:46:32;;;;;;;0.80;0.80;;;6.30;99.90;;;;;;5075070;28;20185;-72
2023/03/19 12:49:22;;;;;;;0.60;0.60;;;6.30;99.90;;;;;;5057146;28;20292;-72
2023/03/19 12:51:54;;;;;;;0.60;0.60;;;6.40;99.90;;;;;;5057132;28;20197;-72
2023/03/19 12:54:27;;;;;;;0.60;0.60;;;6.40;99.90;;;;;;5074749;28;20203;-73
2023/03/19 12:57:14;;;;;;;1.08;1.08;;;6.40;99.90;;;;;;5074958;28;20211;-72
2023/03/19 12:59:45;;;;;;;0.65;0.65;;;6.40;99.90;;;;;;5056672;28;20200;-72
2023/03/19 13:02:49;;;;;;;0.52;0.52;;;6.40;99.90;;;;;;5074873;28;20188;-73
2023/03/19 13:05:22;;;;;;;0.60;0.60;;;6.40;99.90;;;;;;5074498;28;20240;-72
2023/03/19 13:08:02;;;;;;;1.05;1.05;;;6.40;99.90;;;;;;5074789;28;20665;-72
2023/03/19 13:10:30;;;;;;;0.70;0.70;;;6.40;99.90;;;;;;5056445;28;20697;-73
2023/03/19 13:12:57;;;;;;;0.70;0.70;;;6.30;99.90;;;;;;5074831;28;20709;-72